Flight Track Log - Related Links

Times and Time Zones

All times are in EDT time to prevent confusion due to time zone crossing. See the SKW6330 flight status page for this flight to view local times or setup timezone preferences in your user account.

Time Position Orientation Groundspeed Altitude Reporting Facility
EDT Latitude Longitude Course Direction KTS MPH feet Rate Location/Type
Fri 11:07:16 PM 36.7872 -119.7425 141° Southeast 131 151 1,600  Level Oakland Center
Fri 11:08:17 PM 36.7664 -119.7881 240° Southwest 185 213 2,800 1,426 Climbing Oakland Center
Fri 11:09:18 PM 36.7192 -119.7506 148° Southeast 198 228 4,500 1,561 Climbing Oakland Center
Fri 11:10:00 PM 36.7669 -119.7501 158° South  Level FlightAware Approximate
Fri 11:10:20 PM 36.6772 -119.7075 141° Southeast 197 227 6,000  Level Oakland Center
Fri 11:11:00 PM 36.6854 -119.7167 180° South  Level FlightAware Approximate
Fri 11:11:21 PM 36.6264 -119.6761 154° Southeast 205 236 7,500  Level Oakland Center
Fri 11:12:00 PM 36.6066 -119.6733 141° Southeast  Level FlightAware Approximate
Fri 11:12:22 PM 36.5728 -119.6528 161° South 205 236 9,000  Level Oakland Center
Fri 11:13:23 PM 36.5200 -119.6253 157° South 206 237 10,400 1,230 Climbing Oakland Center
Fri 11:14:24 PM 36.4664 -119.5975 157° South 208 239 11,500 1,082 Climbing Oakland Center
Fri 11:15:25 PM 36.4114 -119.5689 157° South 214 246 12,600 934 Climbing Oakland Center
Fri 11:16:26 PM 36.3556 -119.5397 157° South 218 251 13,400 780 Climbing Oakland Center
Fri 11:17:28 PM 36.2986 -119.5094 157° South 222 255 14,200 829 Climbing Oakland Center
Fri 11:18:29 PM 36.2408 -119.4811 158° South 223 257 15,100 984 Climbing Oakland Center
Fri 11:19:30 PM 36.1731 -119.4447 157° South 220 253 16,200 984 Climbing Oakland Center
Fri 11:20:31 PM 36.1169 -119.4156 157° South 218 251 17,100 836 Climbing Oakland Center
Fri 11:21:32 PM 36.0608 -119.3883 159° South 217 250 17,900 836 Climbing Oakland Center
Fri 11:22:33 PM 36.0067 -119.3597 157° South 214 246 18,800 585 Climbing Oakland Center
Fri 11:23:35 PM 35.9525 -119.3253 153° Southeast 215 247 19,100 146 Climbing Oakland Center
Fri 11:24:36 PM 35.8947 -119.2897 154° Southeast 220 253 19,100  Level Oakland Center
Fri 11:25:34 PM 35.8317 -119.2525 154° Southeast 238 274 19,100  Level Los Angeles Center
Fri 11:26:36 PM 35.7694 -119.2142 153° Southeast 246 283 19,100  Level Los Angeles Center
Fri 11:27:38 PM 35.7072 -119.1772 154° Southeast 247 284 19,100  Level Los Angeles Center
Fri 11:28:40 PM 35.6583 -119.1478 154° Southeast 247 284 19,100  Level Los Angeles Center
Fri 11:29:42 PM 35.5833 -119.1036 154° Southeast 247 284 19,100  Level Los Angeles Center
Fri 11:30:44 PM 35.5083 -119.0586 154° Southeast 248 285 19,100  Level Los Angeles Center
Fri 11:31:46 PM 35.4475 -119.0225 154° Southeast 245 282 19,100  Level Los Angeles Center
Fri 11:32:48 PM 35.3858 -118.9856 154° Southeast 246 283 19,100  Level Los Angeles Center
Fri 11:33:50 PM 35.3233 -118.9497 155° Southeast 247 284 19,100  Level Los Angeles Center
Fri 11:34:51 PM 35.2619 -118.9131 154° Southeast 246 283 19,100  Level Los Angeles Center
Fri 11:35:53 PM 35.2006 -118.8767 154° Southeast 245 282 19,100  Level Los Angeles Center
Fri 11:36:55 PM 35.1503 -118.8492 156° South 245 282 19,100  Level Los Angeles Center
Fri 11:37:57 PM 35.0647 -118.7981 154° Southeast 243 280 19,100 -145 Level Los Angeles Center
Fri 11:38:59 PM 35.0033 -118.7617 154° Southeast 246 283 18,800 -968 Descending Los Angeles Center
Fri 11:40:01 PM 34.9408 -118.7264 155° Southeast 247 284 17,100 -1,610 Descending Los Angeles Center
Fri 11:41:02 PM 34.8789 -118.6911 155° Southeast 264 304 15,500 -1,610 Descending Los Angeles Center
Fri 11:42:04 PM 34.8133 -118.6517 154° Southeast 264 304 13,800 -1,839 Descending Los Angeles Center
Fri 11:43:06 PM 34.7344 -118.6058 154° Southeast 260 299 11,700 -1,306 Descending Los Angeles Center
Fri 11:44:08 PM 34.6711 -118.5686 154° Southeast 252 290 11,100 -290 Descending Los Angeles Center
Fri 11:45:10 PM 34.6086 -118.5331 155° Southeast 246 283 11,100  Level Los Angeles Center
Fri 11:46:11 PM 34.5492 -118.4958 153° Southeast 242 278 11,100 -585 Level Los Angeles Center
Fri 11:47:13 PM 34.4900 -118.4622 155° Southeast 235 270 9,900 -1,016 Descending Los Angeles Center
Fri 11:48:15 PM 34.4297 -118.4286 155° Southeast 238 274 9,000 -823 Descending Los Angeles Center
Fri 11:49:17 PM 34.3608 -118.3892 155° Southeast 228 262 8,200 -435 Descending Los Angeles Center
Fri 11:50:19 PM 34.3078 -118.3583 154° Southeast 217 250 8,100 -49 Descending Los Angeles Center
Fri 11:51:20 PM 34.2536 -118.3275 155° Southeast 215 247 8,100 -390 Level Los Angeles Center
Fri 11:52:22 PM 34.2025 -118.2969 154° Southeast 208 239 7,300 -919 Descending Los Angeles Center
Fri 11:53:24 PM 34.1542 -118.2661 152° Southeast 200 230 6,200 -629 Descending Los Angeles Center
Fri 11:54:26 PM 34.1053 -118.2353 152° Southeast 198 228 6,000 -634 Descending Los Angeles Center
Fri 11:55:27 PM 34.0592 -118.2056 152° Southeast 190 219 4,900 -878 Descending Los Angeles Center
Fri 11:56:29 PM 34.0225 -118.1672 139° Southeast 189 217 4,200 -800 Descending Los Angeles Center
Fri 11:57:42 PM 34.0286 -118.0964 84° East 207 238 3,100 -733 Descending Los Angeles Center
Fri 11:57:59 PM 34.0000 -118.1000 186° South 193 222 3,100  Level Southern California TRACON
Fri 11:58:45 PM 33.9811 -118.1281 231° Southwest 189 217 3,100  Level Los Angeles Center
Fri 11:59:46 PM 33.9742 -118.1939 263° West 195 224 3,100 -293 Level Los Angeles Center
Sat 12:00:48 AM 33.9669 -118.2589 262° West 197 227 2,500 -726 Descending Los Angeles Center
Sat 12:01:50 AM 33.9617 -118.3186 264° West 188 216 1,600 -871 Descending Los Angeles Center

Login

Don't have an account? Register now (free) for customized features, flight alerts, and more!